sensor_id;sensor_type;location;lat;lon;timestamp;temperature;humidity
53520;DHT22;39397;53.204;5.778;2023-09-19T00:01:09;14.70;99.90
53520;DHT22;39397;53.204;5.778;2023-09-19T00:03:36;14.90;99.90
53520;DHT22;39397;53.204;5.778;2023-09-19T00:06:04;14.90;99.90
53520;DHT22;39397;53.204;5.778;2023-09-19T00:08:32;15.10;99.90
53520;DHT22;39397;53.204;5.778;2023-09-19T00:10:58;15.10;99.90
53520;DHT22;39397;53.204;5.778;2023-09-19T00:13:32;15.30;99.90
53520;DHT22;39397;53.204;5.778;2023-09-19T00:16:01;15.30;99.90
53520;DHT22;39397;53.204;5.778;2023-09-19T00:18:36;15.20;99.90
53520;DHT22;39397;53.204;5.778;2023-09-19T00:21:04;15.00;99.90
53520;DHT22;39397;53.204;5.778;2023-09-19T00:23:39;14.90;99.90
53520;DHT22;39397;53.204;5.778;2023-09-19T00:26:08;15.00;99.90
53520;DHT22;39397;53.204;5.778;2023-09-19T00:28:36;15.00;99.90
53520;DHT22;39397;53.204;5.778;2023-09-19T00:31:10;15.00;99.90
53520;DHT22;39397;53.204;5.778;2023-09-19T00:33:44;14.80;99.90
53520;DHT22;39397;53.204;5.778;2023-09-19T00:36:11;13.70;99.90
53520;DHT22;39397;53.204;5.778;2023-09-19T00:38:42;14.80;99.90
53520;DHT22;39397;53.204;5.778;2023-09-19T00:41:10;14.60;99.90
53520;DHT22;39397;53.204;5.778;2023-09-19T00:43:41;14.50;99.90
53520;DHT22;39397;53.204;5.778;2023-09-19T00:46:08;14.40;99.90
53520;DHT22;39397;53.204;5.778;2023-09-19T00:48:41;14.80;99.90
53520;DHT22;39397;53.204;5.778;2023-09-19T00:51:10;15.20;99.90
53520;DHT22;39397;53.204;5.778;2023-09-19T00:53:38;14.30;99.90
53520;DHT22;39397;53.204;5.778;2023-09-19T00:56:05;14.20;99.90
53520;DHT22;39397;53.204;5.778;2023-09-19T00:58:38;14.20;99.90
53520;DHT22;39397;53.204;5.778;2023-09-19T01:01:05;14.70;99.90
53520;DHT22;39397;53.204;5.778;2023-09-19T01:03:37;14.00;99.90
53520;DHT22;39397;53.204;5.778;2023-09-19T01:06:06;14.30;99.90
53520;DHT22;39397;53.204;5.778;2023-09-19T01:08:49;14.00;99.90
53520;DHT22;39397;53.204;5.778;2023-09-19T01:11:26;13.00;99.90
53520;DHT22;39397;53.204;5.778;2023-09-19T01:14:29;14.10;99.90
53520;DHT22;39397;53.204;5.778;2023-09-19T01:17:03;14.10;99.90
53520;DHT22;39397;53.204;5.778;2023-09-19T01:25:50;14.20;99.90
53520;DHT22;39397;53.204;5.778;2023-09-19T01:31:09;14.30;99.90
53520;DHT22;39397;53.204;5.778;2023-09-19T01:36:46;16.90;99.90
53520;DHT22;39397;53.204;5.778;2023-09-19T01:39:32;14.30;99.90
53520;DHT22;39397;53.204;5.778;2023-09-19T01:42:01;14.10;99.90
53520;DHT22;39397;53.204;5.778;2023-09-19T01:47:51;14.70;99.90
53520;DHT22;39397;53.204;5.778;2023-09-19T01:50:30;14.10;99.90
53520;DHT22;39397;53.204;5.778;2023-09-19T01:53:33;14.00;99.90
53520;DHT22;39397;53.204;5.778;2023-09-19T01:56:02;13.80;99.90
53520;DHT22;39397;53.204;5.778;2023-09-19T01:58:50;15.00;99.90
53520;DHT22;39397;53.204;5.778;2023-09-19T02:01:32;14.00;99.90
53520;DHT22;39397;53.204;5.778;2023-09-19T02:04:05;14.00;99.90
53520;DHT22;39397;53.204;5.778;2023-09-19T02:06:41;14.10;99.90
53520;DHT22;39397;53.204;5.778;2023-09-19T02:09:09;14.10;99.90
53520;DHT22;39397;53.204;5.778;2023-09-19T02:11:35;14.80;99.90
53520;DHT22;39397;53.204;5.778;2023-09-19T02:14:03;13.90;99.90
53520;DHT22;39397;53.204;5.778;2023-09-19T02:16:30;14.10;99.90
53520;DHT22;39397;53.204;5.778;2023-09-19T02:18:56;14.20;99.90
53520;DHT22;39397;53.204;5.778;2023-09-19T02:21:22;13.90;99.90
53520;DHT22;39397;53.204;5.778;2023-09-19T02:23:51;11.80;99.90
53520;DHT22;39397;53.204;5.778;2023-09-19T02:26:21;14.30;99.90
53520;DHT22;39397;53.204;5.778;2023-09-19T02:28:56;14.20;99.90
53520;DHT22;39397;53.204;5.778;2023-09-19T02:31:24;14.60;99.90
53520;DHT22;39397;53.204;5.778;2023-09-19T02:33:55;14.20;99.90
53520;DHT22;39397;53.204;5.778;2023-09-19T02:36:22;14.30;99.90
53520;DHT22;39397;53.204;5.778;2023-09-19T02:38:51;14.30;99.90
53520;DHT22;39397;53.204;5.778;2023-09-19T02:41:24;14.50;99.90
53520;DHT22;39397;53.204;5.778;2023-09-19T02:43:50;14.40;99.90
53520;DHT22;39397;53.204;5.778;2023-09-19T02:46:21;13.90;99.90
53520;DHT22;39397;53.204;5.778;2023-09-19T02:48:51;15.90;99.90
53520;DHT22;39397;53.204;5.778;2023-09-19T02:51:18;14.20;99.90
53520;DHT22;39397;53.204;5.778;2023-09-19T02:53:54;14.00;99.90
53520;DHT22;39397;53.204;5.778;2023-09-19T02:56:36;14.20;99.90
53520;DHT22;39397;53.204;5.778;2023-09-19T02:59:03;14.40;99.90
53520;DHT22;39397;53.204;5.778;2023-09-19T03:01:30;13.90;99.90
53520;DHT22;39397;53.204;5.778;2023-09-19T03:04:04;14.40;99.90
53520;DHT22;39397;53.204;5.778;2023-09-19T03:06:35;14.00;99.90
53520;DHT22;39397;53.204;5.778;2023-09-19T03:09:01;14.10;99.90
53520;DHT22;39397;53.204;5.778;2023-09-19T03:11:28;14.20;99.90
53520;DHT22;39397;53.204;5.778;2023-09-19T03:13:55;14.10;99.90
53520;DHT22;39397;53.204;5.778;2023-09-19T03:16:22;14.10;99.90
53520;DHT22;39397;53.204;5.778;2023-09-19T03:18:55;13.90;99.90
53520;DHT22;39397;53.204;5.778;2023-09-19T03:21:22;14.80;99.90
53520;DHT22;39397;53.204;5.778;2023-09-19T03:23:49;14.30;99.90
53520;DHT22;39397;53.204;5.778;2023-09-19T03:26:22;14.80;99.90
53520;DHT22;39397;53.204;5.778;2023-09-19T03:28:51;14.10;99.90
53520;DHT22;39397;53.204;5.778;2023-09-19T03:31:23;12.60;99.90
53520;DHT22;39397;53.204;5.778;2023-09-19T03:33:58;14.00;99.90
53520;DHT22;39397;53.204;5.778;2023-09-19T03:36:37;14.00;99.90
53520;DHT22;39397;53.204;5.778;2023-09-19T03:39:06;14.00;99.90
53520;DHT22;39397;53.204;5.778;2023-09-19T03:41:35;12.00;99.90
53520;DHT22;39397;53.204;5.778;2023-09-19T03:44:03;13.90;99.90
53520;DHT22;39397;53.204;5.778;2023-09-19T03:46:30;14.00;99.90
53520;DHT22;39397;53.204;5.778;2023-09-19T03:48:59;14.00;99.90
53520;DHT22;39397;53.204;5.778;2023-09-19T03:51:26;14.50;99.90
53520;DHT22;39397;53.204;5.778;2023-09-19T03:54:03;13.90;99.90
53520;DHT22;39397;53.204;5.778;2023-09-19T03:56:30;13.90;99.90
53520;DHT22;39397;53.204;5.778;2023-09-19T03:58:57;11.90;99.90
53520;DHT22;39397;53.204;5.778;2023-09-19T04:01:23;13.60;99.90
53520;DHT22;39397;53.204;5.778;2023-09-19T04:03:51;12.30;99.90
53520;DHT22;39397;53.204;5.778;2023-09-19T04:06:20;13.90;99.90
53520;DHT22;39397;53.204;5.778;2023-09-19T04:08:55;14.30;99.90
53520;DHT22;39397;53.204;5.778;2023-09-19T04:11:29;13.90;99.90
53520;DHT22;39397;53.204;5.778;2023-09-19T04:14:03;13.60;99.90
53520;DHT22;39397;53.204;5.778;2023-09-19T04:16:30;14.10;99.90
53520;DHT22;39397;53.204;5.778;2023-09-19T04:19:05;14.10;99.90
53520;DHT22;39397;53.204;5.778;2023-09-19T04:21:35;14.50;99.90
53520;DHT22;39397;53.204;5.778;2023-09-19T04:24:06;14.30;99.90
53520;DHT22;39397;53.204;5.778;2023-09-19T04:26:32;14.40;99.90
53520;DHT22;39397;53.204;5.778;2023-09-19T04:29:08;14.50;99.90
53520;DHT22;39397;53.204;5.778;2023-09-19T04:31:37;14.50;99.90
53520;DHT22;39397;53.204;5.778;2023-09-19T04:34:09;14.30;99.90
53520;DHT22;39397;53.204;5.778;2023-09-19T04:36:39;14.70;99.90
53520;DHT22;39397;53.204;5.778;2023-09-19T04:39:05;14.90;99.90
53520;DHT22;39397;53.204;5.778;2023-09-19T04:41:45;14.40;99.90
53520;DHT22;39397;53.204;5.778;2023-09-19T04:44:14;14.60;99.90
53520;DHT22;39397;53.204;5.778;2023-09-19T04:46:40;14.50;99.90
53520;DHT22;39397;53.204;5.778;2023-09-19T04:49:06;14.50;99.90
53520;DHT22;39397;53.204;5.778;2023-09-19T04:51:31;14.60;99.90
53520;DHT22;39397;53.204;5.778;2023-09-19T04:54:00;14.80;99.90
53520;DHT22;39397;53.204;5.778;2023-09-19T04:56:26;14.90;99.90
53520;DHT22;39397;53.204;5.778;2023-09-19T04:58:54;14.80;99.90
53520;DHT22;39397;53.204;5.778;2023-09-19T05:01:20;14.80;99.90
53520;DHT22;39397;53.204;5.778;2023-09-19T05:03:48;14.90;99.90
53520;DHT22;39397;53.204;5.778;2023-09-19T05:06:18;14.80;99.90
53520;DHT22;39397;53.204;5.778;2023-09-19T05:08:44;14.70;99.90
53520;DHT22;39397;53.204;5.778;2023-09-19T05:11:09;14.70;99.90
53520;DHT22;39397;53.204;5.778;2023-09-19T05:13:35;14.80;99.90
53520;DHT22;39397;53.204;5.778;2023-09-19T05:16:01;15.10;99.90
53520;DHT22;39397;53.204;5.778;2023-09-19T05:18:28;14.80;99.90
53520;DHT22;39397;53.204;5.778;2023-09-19T05:20:54;14.80;99.90
53520;DHT22;39397;53.204;5.778;2023-09-19T05:23:20;13.40;99.90
53520;DHT22;39397;53.204;5.778;2023-09-19T05:25:46;15.30;99.90
53520;DHT22;39397;53.204;5.778;2023-09-19T05:28:12;14.80;99.90
53520;DHT22;39397;53.204;5.778;2023-09-19T05:30:40;14.70;99.90
53520;DHT22;39397;53.204;5.778;2023-09-19T05:33:06;14.80;99.90
53520;DHT22;39397;53.204;5.778;2023-09-19T05:35:33;14.70;99.90
53520;DHT22;39397;53.204;5.778;2023-09-19T05:37:59;13.60;99.90
53520;DHT22;39397;53.204;5.778;2023-09-19T05:40:25;14.70;99.90
53520;DHT22;39397;53.204;5.778;2023-09-19T05:42:51;14.60;99.90
53520;DHT22;39397;53.204;5.778;2023-09-19T05:45:17;14.70;99.90
53520;DHT22;39397;53.204;5.778;2023-09-19T05:47:50;14.70;99.90
53520;DHT22;39397;53.204;5.778;2023-09-19T05:50:17;14.90;99.90
53520;DHT22;39397;53.204;5.778;2023-09-19T05:52:47;14.60;99.90
53520;DHT22;39397;53.204;5.778;2023-09-19T05:55:17;14.60;99.90
53520;DHT22;39397;53.204;5.778;2023-09-19T05:57:43;14.60;99.90
53520;DHT22;39397;53.204;5.778;2023-09-19T06:00:15;14.80;99.90
53520;DHT22;39397;53.204;5.778;2023-09-19T06:02:43;14.70;99.90
53520;DHT22;39397;53.204;5.778;2023-09-19T06:05:10;14.90;99.90
53520;DHT22;39397;53.204;5.778;2023-09-19T06:07:37;14.70;99.90
53520;DHT22;39397;53.204;5.778;2023-09-19T06:10:05;14.80;99.90
53520;DHT22;39397;53.204;5.778;2023-09-19T06:12:32;14.80;99.90
53520;DHT22;39397;53.204;5.778;2023-09-19T06:15:03;14.80;99.90
53520;DHT22;39397;53.204;5.778;2023-09-19T06:17:31;14.90;99.90
53520;DHT22;39397;53.204;5.778;2023-09-19T06:19:56;14.80;99.90
53520;DHT22;39397;53.204;5.778;2023-09-19T06:22:22;14.70;99.90
53520;DHT22;39397;53.204;5.778;2023-09-19T06:24:50;14.80;99.90
53520;DHT22;39397;53.204;5.778;2023-09-19T06:27:15;14.90;99.90
53520;DHT22;39397;53.204;5.778;2023-09-19T06:29:41;15.00;99.90
53520;DHT22;39397;53.204;5.778;2023-09-19T06:32:10;15.00;99.90
53520;DHT22;39397;53.204;5.778;2023-09-19T06:34:37;15.00;99.90
53520;DHT22;39397;53.204;5.778;2023-09-19T06:37:04;15.20;99.90
53520;DHT22;39397;53.204;5.778;2023-09-19T06:39:31;15.10;99.90
53520;DHT22;39397;53.204;5.778;2023-09-19T06:42:04;15.20;99.90
53520;DHT22;39397;53.204;5.778;2023-09-19T06:44:30;15.30;99.90
53520;DHT22;39397;53.204;5.778;2023-09-19T06:46:57;15.30;99.90
53520;DHT22;39397;53.204;5.778;2023-09-19T06:49:23;15.30;99.90
53520;DHT22;39397;53.204;5.778;2023-09-19T06:51:49;15.30;99.90
53520;DHT22;39397;53.204;5.778;2023-09-19T06:54:14;15.40;99.90
53520;DHT22;39397;53.204;5.778;2023-09-19T06:56:40;15.50;99.90
53520;DHT22;39397;53.204;5.778;2023-09-19T06:59:07;15.40;99.90
53520;DHT22;39397;53.204;5.778;2023-09-19T07:01:32;15.50;99.90
53520;DHT22;39397;53.204;5.778;2023-09-19T07:03:59;15.60;99.90
53520;DHT22;39397;53.204;5.778;2023-09-19T07:06:27;15.80;99.90
53520;DHT22;39397;53.204;5.778;2023-09-19T07:08:53;15.70;99.90
53520;DHT22;39397;53.204;5.778;2023-09-19T07:11:19;15.80;99.90
53520;DHT22;39397;53.204;5.778;2023-09-19T07:13:46;15.80;99.90
53520;DHT22;39397;53.204;5.778;2023-09-19T07:16:12;15.70;99.90
53520;DHT22;39397;53.204;5.778;2023-09-19T07:18:39;15.70;99.90
53520;DHT22;39397;53.204;5.778;2023-09-19T07:21:04;15.80;99.90
53520;DHT22;39397;53.204;5.778;2023-09-19T07:23:31;15.80;99.90
53520;DHT22;39397;53.204;5.778;2023-09-19T07:26:03;15.80;99.90
53520;DHT22;39397;53.204;5.778;2023-09-19T07:28:31;15.90;99.90
53520;DHT22;39397;53.204;5.778;2023-09-19T07:31:01;15.80;99.90
53520;DHT22;39397;53.204;5.778;2023-09-19T07:33:28;15.90;99.90
53520;DHT22;39397;53.204;5.778;2023-09-19T07:35:54;16.00;99.90
53520;DHT22;39397;53.204;5.778;2023-09-19T07:38:20;16.20;99.90
53520;DHT22;39397;53.204;5.778;2023-09-19T07:40:46;16.30;99.90
53520;DHT22;39397;53.204;5.778;2023-09-19T07:43:12;16.40;99.90
53520;DHT22;39397;53.204;5.778;2023-09-19T07:45:38;16.50;99.90
53520;DHT22;39397;53.204;5.778;2023-09-19T07:48:04;16.60;99.90
53520;DHT22;39397;53.204;5.778;2023-09-19T07:50:33;16.70;99.90
53520;DHT22;39397;53.204;5.778;2023-09-19T07:53:02;16.80;99.90
53520;DHT22;39397;53.204;5.778;2023-09-19T07:55:30;16.50;99.90
53520;DHT22;39397;53.204;5.778;2023-09-19T07:57:56;16.90;99.90
53520;DHT22;39397;53.204;5.778;2023-09-19T08:00:22;16.90;99.90
53520;DHT22;39397;53.204;5.778;2023-09-19T08:02:48;16.90;99.90
53520;DHT22;39397;53.204;5.778;2023-09-19T08:05:14;16.70;99.90
53520;DHT22;39397;53.204;5.778;2023-09-19T08:07:43;17.00;99.90
53520;DHT22;39397;53.204;5.778;2023-09-19T08:10:09;17.10;99.90
53520;DHT22;39397;53.204;5.778;2023-09-19T08:12:45;17.20;99.90
53520;DHT22;39397;53.204;5.778;2023-09-19T08:15:18;15.70;99.90
53520;DHT22;39397;53.204;5.778;2023-09-19T08:17:47;17.30;99.90
53520;DHT22;39397;53.204;5.778;2023-09-19T08:20:14;17.50;99.90
53520;DHT22;39397;53.204;5.778;2023-09-19T08:22:50;17.70;99.90
53520;DHT22;39397;53.204;5.778;2023-09-19T08:25:18;17.60;99.90
53520;DHT22;39397;53.204;5.778;2023-09-19T08:27:45;17.40;99.90
53520;DHT22;39397;53.204;5.778;2023-09-19T08:30:18;17.40;99.90
53520;DHT22;39397;53.204;5.778;2023-09-19T08:32:48;17.50;99.90
53520;DHT22;39397;53.204;5.778;2023-09-19T08:35:15;17.50;99.90
53520;DHT22;39397;53.204;5.778;2023-09-19T08:37:41;17.50;99.90
53520;DHT22;39397;53.204;5.778;2023-09-19T08:40:08;17.60;99.90
53520;DHT22;39397;53.204;5.778;2023-09-19T08:42:53;17.60;99.90
53520;DHT22;39397;53.204;5.778;2023-09-19T08:45:20;19.10;99.90
53520;DHT22;39397;53.204;5.778;2023-09-19T08:48:16;17.90;99.90
53520;DHT22;39397;53.204;5.778;2023-09-19T08:51:03;17.90;99.90
53520;DHT22;39397;53.204;5.778;2023-09-19T08:53:42;18.00;99.90
53520;DHT22;39397;53.204;5.778;2023-09-19T08:56:12;18.00;99.90
53520;DHT22;39397;53.204;5.778;2023-09-19T09:01:15;16.60;99.90
53520;DHT22;39397;53.204;5.778;2023-09-19T09:03:42;18.10;99.90
53520;DHT22;39397;53.204;5.778;2023-09-19T09:06:13;18.40;99.90
53520;DHT22;39397;53.204;5.778;2023-09-19T09:08:42;18.00;99.90
53520;DHT22;39397;53.204;5.778;2023-09-19T09:11:08;18.20;99.90
53520;DHT22;39397;53.204;5.778;2023-09-19T09:13:36;18.10;99.90
53520;DHT22;39397;53.204;5.778;2023-09-19T09:16:03;18.10;99.90
53520;DHT22;39397;53.204;5.778;2023-09-19T09:18:29;18.10;99.90
53520;DHT22;39397;53.204;5.778;2023-09-19T09:20:57;18.30;99.90
53520;DHT22;39397;53.204;5.778;2023-09-19T09:23:23;19.40;99.90
53520;DHT22;39397;53.204;5.778;2023-09-19T09:25:52;18.20;99.90
53520;DHT22;39397;53.204;5.778;2023-09-19T09:28:26;18.40;99.90
53520;DHT22;39397;53.204;5.778;2023-09-19T09:30:54;18.60;99.90
53520;DHT22;39397;53.204;5.778;2023-09-19T09:33:20;18.80;99.90
53520;DHT22;39397;53.204;5.778;2023-09-19T09:36:00;19.00;99.90
53520;DHT22;39397;53.204;5.778;2023-09-19T09:38:44;19.00;99.90
53520;DHT22;39397;53.204;5.778;2023-09-19T09:41:11;17.90;99.90
53520;DHT22;39397;53.204;5.778;2023-09-19T09:43:41;19.10;99.90
53520;DHT22;39397;53.204;5.778;2023-09-19T09:46:16;19.10;99.90
53520;DHT22;39397;53.204;5.778;2023-09-19T09:51:41;19.30;99.90
53520;DHT22;39397;53.204;5.778;2023-09-19T09:54:16;19.20;99.90
53520;DHT22;39397;53.204;5.778;2023-09-19T09:57:04;19.00;99.90
53520;DHT22;39397;53.204;5.778;2023-09-19T09:59:58;19.00;99.90
53520;DHT22;39397;53.204;5.778;2023-09-19T10:02:41;19.00;99.90
53520;DHT22;39397;53.204;5.778;2023-09-19T10:05:20;19.00;99.90
53520;DHT22;39397;53.204;5.778;2023-09-19T10:07:50;18.90;99.90
53520;DHT22;39397;53.204;5.778;2023-09-19T10:10:35;19.00;99.90
53520;DHT22;39397;53.204;5.778;2023-09-19T10:13:08;19.10;99.90
53520;DHT22;39397;53.204;5.778;2023-09-19T10:15:39;19.10;99.90
53520;DHT22;39397;53.204;5.778;2023-09-19T10:18:12;19.30;99.90
53520;DHT22;39397;53.204;5.778;2023-09-19T10:20:45;19.30;99.90
53520;DHT22;39397;53.204;5.778;2023-09-19T10:23:12;19.10;99.90
53520;DHT22;39397;53.204;5.778;2023-09-19T10:25:44;19.20;99.90
53520;DHT22;39397;53.204;5.778;2023-09-19T10:28:14;19.20;99.90
53520;DHT22;39397;53.204;5.778;2023-09-19T10:30:46;19.20;99.90
53520;DHT22;39397;53.204;5.778;2023-09-19T10:33:17;19.40;99.90
53520;DHT22;39397;53.204;5.778;2023-09-19T10:35:45;19.40;99.90
53520;DHT22;39397;53.204;5.778;2023-09-19T10:38:12;19.40;99.90
53520;DHT22;39397;53.204;5.778;2023-09-19T10:40:39;19.30;99.90
53520;DHT22;39397;53.204;5.778;2023-09-19T10:43:16;19.30;99.90
53520;DHT22;39397;53.204;5.778;2023-09-19T10:45:47;19.20;99.90
53520;DHT22;39397;53.204;5.778;2023-09-19T10:48:18;18.80;99.90
53520;DHT22;39397;53.204;5.778;2023-09-19T10:53:25;18.70;99.90
53520;DHT22;39397;53.204;5.778;2023-09-19T10:55:56;18.60;99.90
53520;DHT22;39397;53.204;5.778;2023-09-19T10:58:30;18.50;99.90
53520;DHT22;39397;53.204;5.778;2023-09-19T11:01:00;18.30;99.90
53520;DHT22;39397;53.204;5.778;2023-09-19T11:03:40;18.30;99.90
53520;DHT22;39397;53.204;5.778;2023-09-19T11:14:40;18.70;99.90
53520;DHT22;39397;53.204;5.778;2023-09-19T11:30:51;18.30;99.90
53520;DHT22;39397;53.204;5.778;2023-09-19T11:33:31;18.40;99.90
53520;DHT22;39397;53.204;5.778;2023-09-19T11:46:26;17.70;99.90
53520;DHT22;39397;53.204;5.778;2023-09-19T11:48:53;17.60;99.90
53520;DHT22;39397;53.204;5.778;2023-09-19T11:51:23;17.50;99.90
53520;DHT22;39397;53.204;5.778;2023-09-19T11:53:57;17.30;99.90
53520;DHT22;39397;53.204;5.778;2023-09-19T11:56:26;19.40;99.90
53520;DHT22;39397;53.204;5.778;2023-09-19T11:58:57;17.10;99.90
53520;DHT22;39397;53.204;5.778;2023-09-19T12:01:30;17.00;99.90
53520;DHT22;39397;53.204;5.778;2023-09-19T12:03:58;16.90;99.90
53520;DHT22;39397;53.204;5.778;2023-09-19T12:06:29;16.90;99.90
53520;DHT22;39397;53.204;5.778;2023-09-19T12:08:55;17.00;99.90
53520;DHT22;39397;53.204;5.778;2023-09-19T12:11:27;17.10;99.90
53520;DHT22;39397;53.204;5.778;2023-09-19T12:13:54;17.20;99.90
53520;DHT22;39397;53.204;5.778;2023-09-19T12:16:25;17.50;99.90
53520;DHT22;39397;53.204;5.778;2023-09-19T12:18:51;17.60;99.90
53520;DHT22;39397;53.204;5.778;2023-09-19T12:24:15;17.90;99.90
53520;DHT22;39397;53.204;5.778;2023-09-19T12:26:45;17.90;99.90
53520;DHT22;39397;53.204;5.778;2023-09-19T12:29:23;18.00;99.90
53520;DHT22;39397;53.204;5.778;2023-09-19T12:31:59;18.10;99.90
53520;DHT22;39397;53.204;5.778;2023-09-19T12:34:31;18.10;99.90
53520;DHT22;39397;53.204;5.778;2023-09-19T12:39:45;18.10;99.90
53520;DHT22;39397;53.204;5.778;2023-09-19T12:42:20;18.00;99.90
53520;DHT22;39397;53.204;5.778;2023-09-19T12:44:49;17.70;99.90
53520;DHT22;39397;53.204;5.778;2023-09-19T12:47:30;17.50;99.90
53520;DHT22;39397;53.204;5.778;2023-09-19T12:52:57;17.40;99.90
53520;DHT22;39397;53.204;5.778;2023-09-19T12:55:30;16.10;99.90
53520;DHT22;39397;53.204;5.778;2023-09-19T12:58:12;17.10;99.90
53520;DHT22;39397;53.204;5.778;2023-09-19T13:00:44;17.00;99.90
53520;DHT22;39397;53.204;5.778;2023-09-19T13:06:02;16.90;99.90
53520;DHT22;39397;53.204;5.778;2023-09-19T13:08:34;17.10;99.90
53520;DHT22;39397;53.204;5.778;2023-09-19T13:11:08;17.20;99.90
53520;DHT22;39397;53.204;5.778;2023-09-19T13:14:14;17.20;99.90
53520;DHT22;39397;53.204;5.778;2023-09-19T13:17:01;17.50;99.90
53520;DHT22;39397;53.204;5.778;2023-09-19T13:19:39;17.50;99.90
53520;DHT22;39397;53.204;5.778;2023-09-19T13:22:42;17.50;99.90
53520;DHT22;39397;53.204;5.778;2023-09-19T13:25:19;17.70;99.90
53520;DHT22;39397;53.204;5.778;2023-09-19T13:27:47;17.80;99.90
53520;DHT22;39397;53.204;5.778;2023-09-19T13:30:27;17.90;99.90
53520;DHT22;39397;53.204;5.778;2023-09-19T13:33:13;18.00;99.90
53520;DHT22;39397;53.204;5.778;2023-09-19T13:35:44;18.10;99.90
53520;DHT22;39397;53.204;5.778;2023-09-19T13:38:11;18.30;99.90
53520;DHT22;39397;53.204;5.778;2023-09-19T13:40:38;18.10;99.90
53520;DHT22;39397;53.204;5.778;2023-09-19T13:43:05;18.10;99.90
53520;DHT22;39397;53.204;5.778;2023-09-19T13:45:32;18.00;99.90
53520;DHT22;39397;53.204;5.778;2023-09-19T13:47:58;17.90;99.90
53520;DHT22;39397;53.204;5.778;2023-09-19T13:50:25;17.70;99.90
53520;DHT22;39397;53.204;5.778;2023-09-19T13:52:55;17.80;99.90
53520;DHT22;39397;53.204;5.778;2023-09-19T13:55:22;17.90;99.90
53520;DHT22;39397;53.204;5.778;2023-09-19T13:57:48;18.10;99.90
53520;DHT22;39397;53.204;5.778;2023-09-19T14:00:24;17.80;99.90
53520;DHT22;39397;53.204;5.778;2023-09-19T14:02:50;17.90;99.90
53520;DHT22;39397;53.204;5.778;2023-09-19T14:05:16;17.90;99.90
53520;DHT22;39397;53.204;5.778;2023-09-19T14:07:45;17.80;99.90
53520;DHT22;39397;53.204;5.778;2023-09-19T14:10:11;17.70;99.90
53520;DHT22;39397;53.204;5.778;2023-09-19T14:12:38;17.50;99.90
53520;DHT22;39397;53.204;5.778;2023-09-19T14:15:09;17.30;99.90
53520;DHT22;39397;53.204;5.778;2023-09-19T14:17:38;17.30;99.90
53520;DHT22;39397;53.204;5.778;2023-09-19T14:20:04;17.20;99.90
53520;DHT22;39397;53.204;5.778;2023-09-19T14:22:32;17.30;99.90
53520;DHT22;39397;53.204;5.778;2023-09-19T14:24:59;17.30;99.90
53520;DHT22;39397;53.204;5.778;2023-09-19T14:27:25;17.30;99.90
53520;DHT22;39397;53.204;5.778;2023-09-19T14:29:50;17.40;99.90
53520;DHT22;39397;53.204;5.778;2023-09-19T14:32:17;17.50;99.90
53520;DHT22;39397;53.204;5.778;2023-09-19T14:34:43;17.50;99.90
53520;DHT22;39397;53.204;5.778;2023-09-19T14:37:10;17.60;99.90
53520;DHT22;39397;53.204;5.778;2023-09-19T14:39:37;17.80;99.90
53520;DHT22;39397;53.204;5.778;2023-09-19T14:42:05;17.80;99.90
53520;DHT22;39397;53.204;5.778;2023-09-19T14:44:30;17.80;99.90
53520;DHT22;39397;53.204;5.778;2023-09-19T14:46:56;17.60;99.90
53520;DHT22;39397;53.204;5.778;2023-09-19T14:49:22;17.70;99.90
53520;DHT22;39397;53.204;5.778;2023-09-19T14:51:48;17.70;99.90
53520;DHT22;39397;53.204;5.778;2023-09-19T14:54:14;17.70;99.90
53520;DHT22;39397;53.204;5.778;2023-09-19T14:56:43;17.90;99.90
53520;DHT22;39397;53.204;5.778;2023-09-19T14:59:09;17.90;99.90
53520;DHT22;39397;53.204;5.778;2023-09-19T15:01:36;17.90;99.90
53520;DHT22;39397;53.204;5.778;2023-09-19T15:04:12;17.90;99.90
53520;DHT22;39397;53.204;5.778;2023-09-19T15:06:38;17.80;99.90
53520;DHT22;39397;53.204;5.778;2023-09-19T15:09:04;17.90;99.90
53520;DHT22;39397;53.204;5.778;2023-09-19T15:11:30;18.00;99.90
53520;DHT22;39397;53.204;5.778;2023-09-19T15:13:56;17.90;99.90
53520;DHT22;39397;53.204;5.778;2023-09-19T15:16:22;17.90;99.90
53520;DHT22;39397;53.204;5.778;2023-09-19T15:18:48;18.00;99.90
53520;DHT22;39397;53.204;5.778;2023-09-19T15:21:14;17.90;99.90
53520;DHT22;39397;53.204;5.778;2023-09-19T15:23:41;17.90;99.90
53520;DHT22;39397;53.204;5.778;2023-09-19T15:26:10;17.90;99.90
53520;DHT22;39397;53.204;5.778;2023-09-19T15:28:37;18.00;99.90
53520;DHT22;39397;53.204;5.778;2023-09-19T15:31:11;17.80;99.90
53520;DHT22;39397;53.204;5.778;2023-09-19T15:33:37;17.80;99.90
53520;DHT22;39397;53.204;5.778;2023-09-19T15:36:13;17.90;99.90
53520;DHT22;39397;53.204;5.778;2023-09-19T15:38:58;17.70;99.90
53520;DHT22;39397;53.204;5.778;2023-09-19T15:41:32;17.70;99.90
53520;DHT22;39397;53.204;5.778;2023-09-19T15:44:00;17.70;99.90
53520;DHT22;39397;53.204;5.778;2023-09-19T15:46:27;17.70;99.90
53520;DHT22;39397;53.204;5.778;2023-09-19T15:48:53;17.60;99.90
53520;DHT22;39397;53.204;5.778;2023-09-19T15:51:20;17.70;99.90
53520;DHT22;39397;53.204;5.778;2023-09-19T15:53:51;17.70;99.90
53520;DHT22;39397;53.204;5.778;2023-09-19T15:56:19;17.50;99.90
53520;DHT22;39397;53.204;5.778;2023-09-19T15:58:55;17.30;99.90
53520;DHT22;39397;53.204;5.778;2023-09-19T16:01:22;17.30;99.90
53520;DHT22;39397;53.204;5.778;2023-09-19T16:03:51;17.20;99.90
53520;DHT22;39397;53.204;5.778;2023-09-19T16:06:26;19.40;99.90
53520;DHT22;39397;53.204;5.778;2023-09-19T16:09:00;17.10;99.90
53520;DHT22;39397;53.204;5.778;2023-09-19T16:11:30;17.10;99.90
53520;DHT22;39397;53.204;5.778;2023-09-19T16:13:57;16.90;99.90
53520;DHT22;39397;53.204;5.778;2023-09-19T16:16:30;17.20;99.90
53520;DHT22;39397;53.204;5.778;2023-09-19T16:19:01;17.00;99.90
53520;DHT22;39397;53.204;5.778;2023-09-19T16:21:30;16.80;99.90
53520;DHT22;39397;53.204;5.778;2023-09-19T16:23:58;17.10;99.90
53520;DHT22;39397;53.204;5.778;2023-09-19T16:26:25;16.90;99.90
53520;DHT22;39397;53.204;5.778;2023-09-19T16:28:54;16.70;99.90
53520;DHT22;39397;53.204;5.778;2023-09-19T16:31:24;16.70;99.90
53520;DHT22;39397;53.204;5.778;2023-09-19T16:33:50;16.70;99.90
53520;DHT22;39397;53.204;5.778;2023-09-19T16:36:17;16.80;99.90
53520;DHT22;39397;53.204;5.778;2023-09-19T16:38:45;17.40;99.90
53520;DHT22;39397;53.204;5.778;2023-09-19T16:41:13;16.70;99.90
53520;DHT22;39397;53.204;5.778;2023-09-19T16:43:40;16.70;99.90
53520;DHT22;39397;53.204;5.778;2023-09-19T16:46:08;16.70;99.90
53520;DHT22;39397;53.204;5.778;2023-09-19T16:48:37;16.60;99.90
53520;DHT22;39397;53.204;5.778;2023-09-19T16:51:13;16.70;99.90
53520;DHT22;39397;53.204;5.778;2023-09-19T16:53:40;16.70;99.90
53520;DHT22;39397;53.204;5.778;2023-09-19T16:56:12;16.70;99.90